sensor_id;sensor_type;location;lat;lon;timestamp;temperature;humidity
62912;DHT22;49111;51.028;4.218;2022-10-12T06:09:41;6.30;99.90
62912;DHT22;49111;51.028;4.218;2022-10-12T06:12:14;6.30;99.90
62912;DHT22;49111;51.028;4.218;2022-10-12T06:14:41;6.30;99.90
62912;DHT22;49111;51.028;4.218;2022-10-12T06:17:07;6.30;99.90
62912;DHT22;49111;51.028;4.218;2022-10-12T06:19:34;6.40;99.90
62912;DHT22;49111;51.028;4.218;2022-10-12T06:22:00;6.30;99.90
62912;DHT22;49111;51.028;4.218;2022-10-12T06:24:26;6.40;99.90
62912;DHT22;49111;51.028;4.218;2022-10-12T06:26:52;6.30;99.90
62912;DHT22;49111;51.028;4.218;2022-10-12T06:29:18;6.30;99.90
62912;DHT22;49111;51.028;4.218;2022-10-12T07:52:22;8.20;99.90
62912;DHT22;49111;51.028;4.218;2022-10-12T07:55:29;8.30;99.90
62912;DHT22;49111;51.028;4.218;2022-10-12T07:58:01;8.40;99.90
62912;DHT22;49111;51.028;4.218;2022-10-12T08:00:35;8.50;99.90
62912;DHT22;49111;51.028;4.218;2022-10-12T08:03:00;8.60;99.90
62912;DHT22;49111;51.028;4.218;2022-10-12T08:05:26;8.70;99.90
62912;DHT22;49111;51.028;4.218;2022-10-12T08:07:55;8.80;99.90
62912;DHT22;49111;51.028;4.218;2022-10-12T08:10:53;8.90;99.90
62912;DHT22;49111;51.028;4.218;2022-10-12T08:13:23;8.90;99.90
62912;DHT22;49111;51.028;4.218;2022-10-12T08:15:49;9.10;99.90
62912;DHT22;49111;51.028;4.218;2022-10-12T08:18:15;9.20;99.90
62912;DHT22;49111;51.028;4.218;2022-10-12T08:20:40;9.20;99.90
62912;DHT22;49111;51.028;4.218;2022-10-12T08:23:06;9.20;99.90
62912;DHT22;49111;51.028;4.218;2022-10-12T08:25:35;9.30;99.90
62912;DHT22;49111;51.028;4.218;2022-10-12T08:28:36;9.30;99.90
62912;DHT22;49111;51.028;4.218;2022-10-12T08:31:07;9.30;99.90
62912;DHT22;49111;51.028;4.218;2022-10-12T08:33:33;9.50;99.90
62912;DHT22;49111;51.028;4.218;2022-10-12T08:36:04;9.30;99.90
62912;DHT22;49111;51.028;4.218;2022-10-12T08:38:30;9.30;99.90
62912;DHT22;49111;51.028;4.218;2022-10-12T08:51:31;9.40;99.90
62912;DHT22;49111;51.028;4.218;2022-10-12T08:54:01;9.40;99.90
62912;DHT22;49111;51.028;4.218;2022-10-12T08:56:28;9.40;99.90
62912;DHT22;49111;51.028;4.218;2022-10-12T09:06:37;9.70;99.90
62912;DHT22;49111;51.028;4.218;2022-10-12T09:15:23;10.00;99.90
62912;DHT22;49111;51.028;4.218;2022-10-12T09:17:53;10.10;99.90
62912;DHT22;49111;51.028;4.218;2022-10-12T09:20:21;10.20;99.90
62912;DHT22;49111;51.028;4.218;2022-10-12T09:26:32;10.60;99.90
62912;DHT22;49111;51.028;4.218;2022-10-12T09:29:23;10.80;99.90
62912;DHT22;49111;51.028;4.218;2022-10-12T09:32:48;10.90;99.90
62912;DHT22;49111;51.028;4.218;2022-10-12T09:35:16;11.00;99.90
62912;DHT22;49111;51.028;4.218;2022-10-12T09:37:53;11.00;99.90
62912;DHT22;49111;51.028;4.218;2022-10-12T09:40:22;11.10;99.90
62912;DHT22;49111;51.028;4.218;2022-10-12T09:43:22;11.20;99.90
62912;DHT22;49111;51.028;4.218;2022-10-12T09:45:52;11.40;99.90
62912;DHT22;49111;51.028;4.218;2022-10-12T09:48:22;11.40;99.90
62912;DHT22;49111;51.028;4.218;2022-10-12T09:51:02;11.50;99.90
62912;DHT22;49111;51.028;4.218;2022-10-12T09:53:46;11.60;99.90
62912;DHT22;49111;51.028;4.218;2022-10-12T09:56:48;11.70;99.90
62912;DHT22;49111;51.028;4.218;2022-10-12T09:59:32;11.80;99.90
62912;DHT22;49111;51.028;4.218;2022-10-12T10:02:45;11.90;99.90
62912;DHT22;49111;51.028;4.218;2022-10-12T10:05:30;12.00;99.90
62912;DHT22;49111;51.028;4.218;2022-10-12T10:08:22;12.20;99.90
62912;DHT22;49111;51.028;4.218;2022-10-12T10:10:58;12.30;99.90
62912;DHT22;49111;51.028;4.218;2022-10-12T10:13:32;12.40;99.90
62912;DHT22;49111;51.028;4.218;2022-10-12T10:16:13;12.70;99.90
62912;DHT22;49111;51.028;4.218;2022-10-12T10:18:44;13.10;99.90
62912;DHT22;49111;51.028;4.218;2022-10-12T10:21:15;13.20;99.90
62912;DHT22;49111;51.028;4.218;2022-10-12T10:23:56;13.40;99.90
62912;DHT22;49111;51.028;4.218;2022-10-12T10:26:23;13.60;99.90
62912;DHT22;49111;51.028;4.218;2022-10-12T10:28:56;13.70;99.90
62912;DHT22;49111;51.028;4.218;2022-10-12T10:31:26;13.80;99.90
62912;DHT22;49111;51.028;4.218;2022-10-12T10:36:34;13.90;99.90
62912;DHT22;49111;51.028;4.218;2022-10-12T10:39:11;14.10;99.90
62912;DHT22;49111;51.028;4.218;2022-10-12T10:41:51;14.20;99.90
62912;DHT22;49111;51.028;4.218;2022-10-12T10:44:33;14.30;99.90
62912;DHT22;49111;51.028;4.218;2022-10-12T10:47:11;14.40;99.90
62912;DHT22;49111;51.028;4.218;2022-10-12T10:49:53;14.50;99.90
62912;DHT22;49111;51.028;4.218;2022-10-12T10:52:53;14.70;99.90
62912;DHT22;49111;51.028;4.218;2022-10-12T10:58:44;14.70;99.90
62912;DHT22;49111;51.028;4.218;2022-10-12T11:01:23;14.80;99.70
62912;DHT22;49111;51.028;4.218;2022-10-12T11:04:34;14.90;99.50
62912;DHT22;49111;51.028;4.218;2022-10-12T11:07:36;14.80;99.70
62912;DHT22;49111;51.028;4.218;2022-10-12T11:10:41;14.90;99.90
62912;DHT22;49111;51.028;4.218;2022-10-12T11:13:18;14.90;99.90
62912;DHT22;49111;51.028;4.218;2022-10-12T11:18:41;15.10;99.70
62912;DHT22;49111;51.028;4.218;2022-10-12T11:21:37;15.30;99.10
62912;DHT22;49111;51.028;4.218;2022-10-12T11:24:12;15.30;99.00
62912;DHT22;49111;51.028;4.218;2022-10-12T11:26:48;15.40;99.10
62912;DHT22;49111;51.028;4.218;2022-10-12T11:29:16;15.40;99.80
62912;DHT22;49111;51.028;4.218;2022-10-12T11:34:45;15.50;99.70
62912;DHT22;49111;51.028;4.218;2022-10-12T11:37:17;15.70;99.20
62912;DHT22;49111;51.028;4.218;2022-10-12T11:43:33;15.90;98.70
62912;DHT22;49111;51.028;4.218;2022-10-12T11:46:04;16.20;97.70
62912;DHT22;49111;51.028;4.218;2022-10-12T11:48:38;16.30;97.40
62912;DHT22;49111;51.028;4.218;2022-10-12T11:51:06;16.40;97.50
62912;DHT22;49111;51.028;4.218;2022-10-12T11:58:51;16.70;96.90
62912;DHT22;49111;51.028;4.218;2022-10-12T12:02:36;16.70;96.40
62912;DHT22;49111;51.028;4.218;2022-10-12T12:05:18;16.90;96.50
62912;DHT22;49111;51.028;4.218;2022-10-12T12:11:22;16.90;95.80
62912;DHT22;49111;51.028;4.218;2022-10-12T12:13:48;16.90;95.70
62912;DHT22;49111;51.028;4.218;2022-10-12T12:22:18;17.00;95.70
62912;DHT22;49111;51.028;4.218;2022-10-12T12:25:14;17.10;95.30
62912;DHT22;49111;51.028;4.218;2022-10-12T12:35:55;16.80;95.30
62912;DHT22;49111;51.028;4.218;2022-10-12T12:38:31;16.80;95.80
62912;DHT22;49111;51.028;4.218;2022-10-12T12:41:44;16.90;95.60
62912;DHT22;49111;51.028;4.218;2022-10-12T12:44:37;16.90;95.70
62912;DHT22;49111;51.028;4.218;2022-10-12T13:00:25;17.00;96.30
62912;DHT22;49111;51.028;4.218;2022-10-12T13:08:50;17.20;95.90
62912;DHT22;49111;51.028;4.218;2022-10-12T13:20:28;17.70;94.70
62912;DHT22;49111;51.028;4.218;2022-10-12T13:22:56;17.80;94.80
62912;DHT22;49111;51.028;4.218;2022-10-12T13:25:46;17.80;94.10
62912;DHT22;49111;51.028;4.218;2022-10-12T13:28:29;17.70;94.50
62912;DHT22;49111;51.028;4.218;2022-10-12T13:34:30;17.50;95.30
62912;DHT22;49111;51.028;4.218;2022-10-12T13:37:29;17.30;95.30
62912;DHT22;49111;51.028;4.218;2022-10-12T13:39:56;17.40;94.60
62912;DHT22;49111;51.028;4.218;2022-10-12T13:42:26;17.40;94.90
62912;DHT22;49111;51.028;4.218;2022-10-12T13:44:54;17.30;95.00
62912;DHT22;49111;51.028;4.218;2022-10-12T13:47:26;17.30;95.00
62912;DHT22;49111;51.028;4.218;2022-10-12T13:49:53;17.40;93.80
62912;DHT22;49111;51.028;4.218;2022-10-12T13:52:30;17.70;93.30
62912;DHT22;49111;51.028;4.218;2022-10-12T13:55:14;17.60;93.20
62912;DHT22;49111;51.028;4.218;2022-10-12T13:57:47;17.70;93.70
62912;DHT22;49111;51.028;4.218;2022-10-12T14:00:47;17.90;93.50
62912;DHT22;49111;51.028;4.218;2022-10-12T14:03:13;17.90;92.40
62912;DHT22;49111;51.028;4.218;2022-10-12T14:09:18;17.60;93.50
62912;DHT22;49111;51.028;4.218;2022-10-12T14:11:46;17.70;93.30
62912;DHT22;49111;51.028;4.218;2022-10-12T14:14:19;17.70;93.40
62912;DHT22;49111;51.028;4.218;2022-10-12T14:16:49;17.70;93.10
62912;DHT22;49111;51.028;4.218;2022-10-12T14:19:33;17.70;92.80
62912;DHT22;49111;51.028;4.218;2022-10-12T14:22:34;17.70;93.40
62912;DHT22;49111;51.028;4.218;2022-10-12T14:25:08;17.60;93.30
62912;DHT22;49111;51.028;4.218;2022-10-12T14:27:37;17.70;93.50
62912;DHT22;49111;51.028;4.218;2022-10-12T14:30:19;17.90;92.70
62912;DHT22;49111;51.028;4.218;2022-10-12T14:33:07;18.00;92.10
62912;DHT22;49111;51.028;4.218;2022-10-12T14:38:50;17.70;93.60
62912;DHT22;49111;51.028;4.218;2022-10-12T14:41:28;17.70;93.50
62912;DHT22;49111;51.028;4.218;2022-10-12T14:44:13;17.60;93.00
62912;DHT22;49111;51.028;4.218;2022-10-12T14:47:29;17.60;92.90
62912;DHT22;49111;51.028;4.218;2022-10-12T14:49:55;17.60;92.80
62912;DHT22;49111;51.028;4.218;2022-10-12T14:52:42;17.50;92.90
62912;DHT22;49111;51.028;4.218;2022-10-12T14:55:21;17.60;92.40
62912;DHT22;49111;51.028;4.218;2022-10-12T14:57:48;17.60;92.50
62912;DHT22;49111;51.028;4.218;2022-10-12T15:00:16;17.60;92.50
62912;DHT22;49111;51.028;4.218;2022-10-12T15:02:45;17.50;92.80
62912;DHT22;49111;51.028;4.218;2022-10-12T15:05:13;17.50;93.40
62912;DHT22;49111;51.028;4.218;2022-10-12T15:08:12;17.40;94.00
62912;DHT22;49111;51.028;4.218;2022-10-12T15:11:12;17.30;92.90
62912;DHT22;49111;51.028;4.218;2022-10-12T15:13:38;17.30;93.10
62912;DHT22;49111;51.028;4.218;2022-10-12T15:16:19;17.40;92.70
62912;DHT22;49111;51.028;4.218;2022-10-12T15:18:46;17.50;93.00
62912;DHT22;49111;51.028;4.218;2022-10-12T15:21:44;17.50;92.30
62912;DHT22;49111;51.028;4.218;2022-10-12T15:24:13;17.50;92.10
62912;DHT22;49111;51.028;4.218;2022-10-12T15:26:43;17.40;93.00
62912;DHT22;49111;51.028;4.218;2022-10-12T15:29:09;17.50;92.40
62912;DHT22;49111;51.028;4.218;2022-10-12T15:31:42;17.50;92.70
62912;DHT22;49111;51.028;4.218;2022-10-12T15:34:11;17.50;92.90
62912;DHT22;49111;51.028;4.218;2022-10-12T15:36:38;17.50;92.60
62912;DHT22;49111;51.028;4.218;2022-10-12T15:39:03;17.30;92.50
62912;DHT22;49111;51.028;4.218;2022-10-12T15:41:29;17.40;92.20
62912;DHT22;49111;51.028;4.218;2022-10-12T15:43:59;17.40;93.10
62912;DHT22;49111;51.028;4.218;2022-10-12T15:47:04;17.40;92.50
62912;DHT22;49111;51.028;4.218;2022-10-12T15:49:29;17.40;92.40
62912;DHT22;49111;51.028;4.218;2022-10-12T15:52:33;17.30;92.80
62912;DHT22;49111;51.028;4.218;2022-10-12T15:54:58;17.30;93.60
62912;DHT22;49111;51.028;4.218;2022-10-12T15:57:24;17.20;94.30
62912;DHT22;49111;51.028;4.218;2022-10-12T15:59:51;17.20;95.00
62912;DHT22;49111;51.028;4.218;2022-10-12T16:02:17;17.00;94.30
62912;DHT22;49111;51.028;4.218;2022-10-12T16:04:44;16.90;94.40
62912;DHT22;49111;51.028;4.218;2022-10-12T16:07:09;16.80;95.10
62912;DHT22;49111;51.028;4.218;2022-10-12T16:09:35;16.80;95.20
62912;DHT22;49111;51.028;4.218;2022-10-12T16:16:05;16.70;96.30
62912;DHT22;49111;51.028;4.218;2022-10-12T16:18:31;16.60;96.70
62912;DHT22;49111;51.028;4.218;2022-10-12T16:21:34;16.60;97.00
62912;DHT22;49111;51.028;4.218;2022-10-12T16:24:00;16.50;97.20
62912;DHT22;49111;51.028;4.218;2022-10-12T16:26:26;16.50;97.30
62912;DHT22;49111;51.028;4.218;2022-10-12T16:28:51;16.50;97.40
62912;DHT22;49111;51.028;4.218;2022-10-12T16:31:28;16.50;97.50
62912;DHT22;49111;51.028;4.218;2022-10-12T16:33:59;16.40;97.80
62912;DHT22;49111;51.028;4.218;2022-10-12T16:36:35;16.40;98.00
62912;DHT22;49111;51.028;4.218;2022-10-12T16:39:44;16.40;98.20
62912;DHT22;49111;51.028;4.218;2022-10-12T16:42:10;16.30;98.50
62912;DHT22;49111;51.028;4.218;2022-10-12T16:44:43;16.20;98.50
62912;DHT22;49111;51.028;4.218;2022-10-12T16:47:10;16.10;98.60
62912;DHT22;49111;51.028;4.218;2022-10-12T16:49:36;16.00;98.70
62912;DHT22;49111;51.028;4.218;2022-10-12T16:52:09;15.90;98.80
62912;DHT22;49111;51.028;4.218;2022-10-12T16:54:35;15.90;98.90
62912;DHT22;49111;51.028;4.218;2022-10-12T16:57:01;15.80;99.00
62912;DHT22;49111;51.028;4.218;2022-10-12T16:59:35;15.80;99.10
62912;DHT22;49111;51.028;4.218;2022-10-12T17:02:34;15.70;99.30
62912;DHT22;49111;51.028;4.218;2022-10-12T17:05:07;15.70;99.40
62912;DHT22;49111;51.028;4.218;2022-10-12T17:07:35;15.60;99.60
62912;DHT22;49111;51.028;4.218;2022-10-12T17:10:11;15.50;99.70
62912;DHT22;49111;51.028;4.218;2022-10-12T17:12:44;15.50;99.70
62912;DHT22;49111;51.028;4.218;2022-10-12T17:15:43;15.50;99.70
62912;DHT22;49111;51.028;4.218;2022-10-12T17:18:50;15.40;99.80
62912;DHT22;49111;51.028;4.218;2022-10-12T17:21:49;15.30;99.80
62912;DHT22;49111;51.028;4.218;2022-10-12T17:24:18;15.20;99.90
62912;DHT22;49111;51.028;4.218;2022-10-12T17:26:57;15.20;99.90
62912;DHT22;49111;51.028;4.218;2022-10-12T17:29:27;15.10;99.90
62912;DHT22;49111;51.028;4.218;2022-10-12T17:31:56;15.10;99.90
62912;DHT22;49111;51.028;4.218;2022-10-12T17:34:27;15.00;99.90
62912;DHT22;49111;51.028;4.218;2022-10-12T17:36:58;15.00;99.90
62912;DHT22;49111;51.028;4.218;2022-10-12T17:39:38;14.90;99.90
62912;DHT22;49111;51.028;4.218;2022-10-12T17:42:11;15.00;99.90
62912;DHT22;49111;51.028;4.218;2022-10-12T17:44:37;15.00;99.90
62912;DHT22;49111;51.028;4.218;2022-10-12T17:47:35;14.90;99.90
62912;DHT22;49111;51.028;4.218;2022-10-12T17:50:01;14.90;99.90
62912;DHT22;49111;51.028;4.218;2022-10-12T17:52:26;14.90;99.90
62912;DHT22;49111;51.028;4.218;2022-10-12T17:55:31;14.90;99.90
62912;DHT22;49111;51.028;4.218;2022-10-12T17:58:05;14.80;99.90
62912;DHT22;49111;51.028;4.218;2022-10-12T18:00:35;14.70;99.90
62912;DHT22;49111;51.028;4.218;2022-10-12T18:03:01;14.80;99.90
62912;DHT22;49111;51.028;4.218;2022-10-12T18:05:33;14.80;99.90
